sensor_id;sensor_type;location;lat;lon;timestamp;P1;durP1;ratioP1;P2;durP2;ratioP2
61389;SDS011;47260;48.274;19.814;2023-05-21T00:00:57;15.10;;;11.75;;
61389;SDS011;47260;48.274;19.814;2023-05-21T00:02:29;13.38;;;10.65;;
61389;SDS011;47260;48.274;19.814;2023-05-21T00:04:03;14.02;;;11.32;;
61389;SDS011;47260;48.274;19.814;2023-05-21T00:05:37;16.90;;;10.73;;
61389;SDS011;47260;48.274;19.814;2023-05-21T00:07:08;15.27;;;10.93;;
61389;SDS011;47260;48.274;19.814;2023-05-21T00:08:39;12.95;;;10.85;;
61389;SDS011;47260;48.274;19.814;2023-05-21T00:10:11;13.05;;;10.93;;
61389;SDS011;47260;48.274;19.814;2023-05-21T00:11:42;14.07;;;10.75;;
61389;SDS011;47260;48.274;19.814;2023-05-21T00:13:13;14.07;;;11.23;;
61389;SDS011;47260;48.274;19.814;2023-05-21T00:14:44;14.82;;;10.95;;
61389;SDS011;47260;48.274;19.814;2023-05-21T00:16:17;14.15;;;10.68;;
61389;SDS011;47260;48.274;19.814;2023-05-21T00:17:49;12.73;;;9.80;;
61389;SDS011;47260;48.274;19.814;2023-05-21T00:19:21;13.20;;;11.45;;
61389;SDS011;47260;48.274;19.814;2023-05-21T00:20:51;18.73;;;11.35;;
61389;SDS011;47260;48.274;19.814;2023-05-21T00:22:23;14.10;;;10.80;;
61389;SDS011;47260;48.274;19.814;2023-05-21T00:23:55;13.68;;;11.07;;
61389;SDS011;47260;48.274;19.814;2023-05-21T00:25:27;14.52;;;11.73;;
61389;SDS011;47260;48.274;19.814;2023-05-21T00:26:59;15.38;;;11.27;;
61389;SDS011;47260;48.274;19.814;2023-05-21T00:28:31;14.57;;;10.70;;
61389;SDS011;47260;48.274;19.814;2023-05-21T00:30:03;15.57;;;10.77;;
61389;SDS011;47260;48.274;19.814;2023-05-21T00:31:36;17.58;;;11.25;;
61389;SDS011;47260;48.274;19.814;2023-05-21T00:33:08;14.52;;;10.98;;
61389;SDS011;47260;48.274;19.814;2023-05-21T00:34:43;14.63;;;11.63;;
61389;SDS011;47260;48.274;19.814;2023-05-21T00:36:15;16.02;;;11.40;;
61389;SDS011;47260;48.274;19.814;2023-05-21T00:37:47;17.38;;;12.13;;
61389;SDS011;47260;48.274;19.814;2023-05-21T00:39:19;16.55;;;11.93;;
61389;SDS011;47260;48.274;19.814;2023-05-21T00:40:50;14.13;;;10.77;;
61389;SDS011;47260;48.274;19.814;2023-05-21T00:42:21;15.90;;;10.65;;
61389;SDS011;47260;48.274;19.814;2023-05-21T00:43:56;15.57;;;12.40;;
61389;SDS011;47260;48.274;19.814;2023-05-21T00:45:29;16.38;;;12.43;;
61389;SDS011;47260;48.274;19.814;2023-05-21T00:47:02;19.88;;;12.48;;
61389;SDS011;47260;48.274;19.814;2023-05-21T00:48:35;17.40;;;12.63;;
61389;SDS011;47260;48.274;19.814;2023-05-21T00:50:09;16.20;;;11.18;;
61389;SDS011;47260;48.274;19.814;2023-05-21T00:51:44;13.55;;;10.00;;
61389;SDS011;47260;48.274;19.814;2023-05-21T00:53:17;19.33;;;11.38;;
61389;SDS011;47260;48.274;19.814;2023-05-21T00:54:49;17.67;;;11.05;;
61389;SDS011;47260;48.274;19.814;2023-05-21T00:56:21;15.57;;;11.88;;
61389;SDS011;47260;48.274;19.814;2023-05-21T00:57:54;15.65;;;11.25;;
61389;SDS011;47260;48.274;19.814;2023-05-21T00:59:26;15.95;;;12.20;;
61389;SDS011;47260;48.274;19.814;2023-05-21T01:00:56;17.35;;;12.20;;
61389;SDS011;47260;48.274;19.814;2023-05-21T01:02:33;12.90;;;10.35;;
61389;SDS011;47260;48.274;19.814;2023-05-21T01:04:06;14.95;;;10.85;;
61389;SDS011;47260;48.274;19.814;2023-05-21T01:05:37;16.90;;;10.85;;
61389;SDS011;47260;48.274;19.814;2023-05-21T01:07:08;14.55;;;10.60;;
61389;SDS011;47260;48.274;19.814;2023-05-21T01:08:40;16.88;;;11.25;;
61389;SDS011;47260;48.274;19.814;2023-05-21T01:10:12;14.27;;;11.43;;
61389;SDS011;47260;48.274;19.814;2023-05-21T01:11:44;16.38;;;11.90;;
61389;SDS011;47260;48.274;19.814;2023-05-21T01:13:18;15.13;;;11.45;;
61389;SDS011;47260;48.274;19.814;2023-05-21T01:14:52;14.68;;;10.80;;
61389;SDS011;47260;48.274;19.814;2023-05-21T01:16:24;18.88;;;10.65;;
61389;SDS011;47260;48.274;19.814;2023-05-21T01:17:57;16.85;;;10.40;;
61389;SDS011;47260;48.274;19.814;2023-05-21T01:19:29;21.30;;;12.25;;
61389;SDS011;47260;48.274;19.814;2023-05-21T01:21:01;17.13;;;12.63;;
61389;SDS011;47260;48.274;19.814;2023-05-21T01:22:33;12.93;;;10.60;;
61389;SDS011;47260;48.274;19.814;2023-05-21T01:24:07;12.90;;;10.18;;
61389;SDS011;47260;48.274;19.814;2023-05-21T01:25:38;13.38;;;9.93;;
61389;SDS011;47260;48.274;19.814;2023-05-21T01:27:11;13.70;;;11.02;;
61389;SDS011;47260;48.274;19.814;2023-05-21T01:28:42;16.45;;;11.63;;
61389;SDS011;47260;48.274;19.814;2023-05-21T01:30:14;18.00;;;12.20;;
61389;SDS011;47260;48.274;19.814;2023-05-21T01:31:50;15.40;;;11.15;;
61389;SDS011;47260;48.274;19.814;2023-05-21T01:33:31;16.30;;;10.95;;
61389;SDS011;47260;48.274;19.814;2023-05-21T01:35:07;13.00;;;10.60;;
61389;SDS011;47260;48.274;19.814;2023-05-21T01:36:42;15.45;;;10.65;;
61389;SDS011;47260;48.274;19.814;2023-05-21T01:38:21;14.00;;;11.20;;
61389;SDS011;47260;48.274;19.814;2023-05-21T01:39:58;14.52;;;11.18;;
61389;SDS011;47260;48.274;19.814;2023-05-21T01:41:35;13.68;;;10.52;;
61389;SDS011;47260;48.274;19.814;2023-05-21T01:43:12;14.82;;;10.10;;
61389;SDS011;47260;48.274;19.814;2023-05-21T01:44:45;13.98;;;10.57;;
61389;SDS011;47260;48.274;19.814;2023-05-21T01:46:19;13.20;;;10.65;;
61389;SDS011;47260;48.274;19.814;2023-05-21T01:47:54;16.00;;;10.95;;
61389;SDS011;47260;48.274;19.814;2023-05-21T01:49:27;15.20;;;10.68;;
61389;SDS011;47260;48.274;19.814;2023-05-21T01:51:02;16.13;;;10.95;;
61389;SDS011;47260;48.274;19.814;2023-05-21T01:52:35;14.57;;;11.07;;
61389;SDS011;47260;48.274;19.814;2023-05-21T01:54:07;14.40;;;10.13;;
61389;SDS011;47260;48.274;19.814;2023-05-21T01:55:40;15.82;;;11.10;;
61389;SDS011;47260;48.274;19.814;2023-05-21T01:57:11;16.23;;;10.73;;
61389;SDS011;47260;48.274;19.814;2023-05-21T01:58:42;13.43;;;10.57;;
61389;SDS011;47260;48.274;19.814;2023-05-21T02:00:14;13.93;;;11.30;;
61389;SDS011;47260;48.274;19.814;2023-05-21T02:01:47;14.05;;;10.82;;
61389;SDS011;47260;48.274;19.814;2023-05-21T02:03:19;16.35;;;11.02;;
61389;SDS011;47260;48.274;19.814;2023-05-21T02:04:51;13.13;;;10.88;;
61389;SDS011;47260;48.274;19.814;2023-05-21T02:06:22;14.55;;;11.70;;
61389;SDS011;47260;48.274;19.814;2023-05-21T02:07:54;15.13;;;11.95;;
61389;SDS011;47260;48.274;19.814;2023-05-21T02:09:26;15.70;;;11.38;;
61389;SDS011;47260;48.274;19.814;2023-05-21T02:10:59;15.18;;;11.20;;
61389;SDS011;47260;48.274;19.814;2023-05-21T02:12:31;14.60;;;11.38;;
61389;SDS011;47260;48.274;19.814;2023-05-21T02:14:04;15.02;;;11.52;;
61389;SDS011;47260;48.274;19.814;2023-05-21T02:15:35;16.02;;;12.13;;
61389;SDS011;47260;48.274;19.814;2023-05-21T02:17:07;14.95;;;11.80;;
61389;SDS011;47260;48.274;19.814;2023-05-21T02:18:38;17.15;;;12.30;;
61389;SDS011;47260;48.274;19.814;2023-05-21T02:20:11;15.55;;;11.10;;
61389;SDS011;47260;48.274;19.814;2023-05-21T02:21:43;14.18;;;11.82;;
61389;SDS011;47260;48.274;19.814;2023-05-21T02:23:15;13.48;;;11.15;;
61389;SDS011;47260;48.274;19.814;2023-05-21T02:24:47;14.48;;;11.65;;
61389;SDS011;47260;48.274;19.814;2023-05-21T02:26:20;16.00;;;11.38;;
61389;SDS011;47260;48.274;19.814;2023-05-21T02:27:52;17.85;;;11.85;;
61389;SDS011;47260;48.274;19.814;2023-05-21T02:29:25;17.92;;;12.05;;
61389;SDS011;47260;48.274;19.814;2023-05-21T02:30:57;17.95;;;12.18;;
61389;SDS011;47260;48.274;19.814;2023-05-21T02:32:29;17.42;;;11.60;;
61389;SDS011;47260;48.274;19.814;2023-05-21T02:34:01;14.40;;;11.07;;
61389;SDS011;47260;48.274;19.814;2023-05-21T02:35:33;13.55;;;11.43;;
61389;SDS011;47260;48.274;19.814;2023-05-21T02:37:04;16.55;;;10.32;;
61389;SDS011;47260;48.274;19.814;2023-05-21T02:38:36;13.13;;;11.02;;
61389;SDS011;47260;48.274;19.814;2023-05-21T02:40:08;14.38;;;11.10;;
61389;SDS011;47260;48.274;19.814;2023-05-21T02:41:40;13.48;;;10.90;;
61389;SDS011;47260;48.274;19.814;2023-05-21T02:43:12;14.88;;;11.68;;
61389;SDS011;47260;48.274;19.814;2023-05-21T02:44:42;13.52;;;10.13;;
61389;SDS011;47260;48.274;19.814;2023-05-21T02:46:14;14.15;;;11.10;;
61389;SDS011;47260;48.274;19.814;2023-05-21T02:47:46;13.15;;;10.80;;
61389;SDS011;47260;48.274;19.814;2023-05-21T02:49:20;12.40;;;9.65;;
61389;SDS011;47260;48.274;19.814;2023-05-21T02:50:53;12.10;;;9.95;;
61389;SDS011;47260;48.274;19.814;2023-05-21T02:52:25;14.93;;;10.32;;
61389;SDS011;47260;48.274;19.814;2023-05-21T02:53:56;13.80;;;10.32;;
61389;SDS011;47260;48.274;19.814;2023-05-21T02:55:28;14.40;;;10.35;;
61389;SDS011;47260;48.274;19.814;2023-05-21T02:57:00;16.17;;;10.27;;
61389;SDS011;47260;48.274;19.814;2023-05-21T02:58:32;16.02;;;10.93;;
61389;SDS011;47260;48.274;19.814;2023-05-21T03:00:04;16.67;;;11.00;;
61389;SDS011;47260;48.274;19.814;2023-05-21T03:01:39;13.15;;;10.45;;
61389;SDS011;47260;48.274;19.814;2023-05-21T03:03:11;11.80;;;10.38;;
61389;SDS011;47260;48.274;19.814;2023-05-21T03:04:43;16.77;;;11.55;;
61389;SDS011;47260;48.274;19.814;2023-05-21T03:06:16;13.48;;;10.23;;
61389;SDS011;47260;48.274;19.814;2023-05-21T03:07:48;16.40;;;12.52;;
61389;SDS011;47260;48.274;19.814;2023-05-21T03:09:20;15.20;;;10.55;;
61389;SDS011;47260;48.274;19.814;2023-05-21T03:10:52;12.75;;;10.60;;
61389;SDS011;47260;48.274;19.814;2023-05-21T03:12:25;12.38;;;10.52;;
61389;SDS011;47260;48.274;19.814;2023-05-21T03:13:56;12.57;;;10.80;;
61389;SDS011;47260;48.274;19.814;2023-05-21T03:15:28;13.25;;;10.57;;
61389;SDS011;47260;48.274;19.814;2023-05-21T03:17:02;12.88;;;10.80;;
61389;SDS011;47260;48.274;19.814;2023-05-21T03:18:35;15.57;;;11.90;;
61389;SDS011;47260;48.274;19.814;2023-05-21T03:20:07;14.50;;;11.93;;
61389;SDS011;47260;48.274;19.814;2023-05-21T03:21:45;14.48;;;11.80;;
61389;SDS011;47260;48.274;19.814;2023-05-21T03:23:18;16.85;;;11.93;;
61389;SDS011;47260;48.274;19.814;2023-05-21T03:24:50;17.92;;;12.55;;
61389;SDS011;47260;48.274;19.814;2023-05-21T03:26:22;15.63;;;12.35;;
61389;SDS011;47260;48.274;19.814;2023-05-21T03:27:57;14.38;;;11.15;;
61389;SDS011;47260;48.274;19.814;2023-05-21T03:29:49;12.18;;;10.85;;
61389;SDS011;47260;48.274;19.814;2023-05-21T03:31:25;21.67;;;11.35;;
61389;SDS011;47260;48.274;19.814;2023-05-21T03:33:16;14.77;;;10.15;;
61389;SDS011;47260;48.274;19.814;2023-05-21T03:34:49;13.73;;;10.10;;
61389;SDS011;47260;48.274;19.814;2023-05-21T03:36:22;15.13;;;10.57;;
61389;SDS011;47260;48.274;19.814;2023-05-21T03:37:53;12.15;;;10.52;;
61389;SDS011;47260;48.274;19.814;2023-05-21T03:39:26;11.35;;;9.93;;
61389;SDS011;47260;48.274;19.814;2023-05-21T03:40:59;14.13;;;10.23;;
61389;SDS011;47260;48.274;19.814;2023-05-21T03:42:30;14.75;;;9.15;;
61389;SDS011;47260;48.274;19.814;2023-05-21T03:44:04;13.07;;;9.98;;
61389;SDS011;47260;48.274;19.814;2023-05-21T03:45:47;10.88;;;9.25;;
61389;SDS011;47260;48.274;19.814;2023-05-21T03:47:37;13.82;;;9.65;;
61389;SDS011;47260;48.274;19.814;2023-05-21T03:49:12;12.00;;;9.48;;
61389;SDS011;47260;48.274;19.814;2023-05-21T03:50:44;12.88;;;10.57;;
61389;SDS011;47260;48.274;19.814;2023-05-21T03:52:16;11.57;;;9.95;;
61389;SDS011;47260;48.274;19.814;2023-05-21T03:53:47;12.75;;;9.00;;
61389;SDS011;47260;48.274;19.814;2023-05-21T03:55:18;12.00;;;9.63;;
61389;SDS011;47260;48.274;19.814;2023-05-21T03:56:50;14.38;;;10.15;;
61389;SDS011;47260;48.274;19.814;2023-05-21T03:58:21;11.60;;;9.00;;
61389;SDS011;47260;48.274;19.814;2023-05-21T03:59:54;11.95;;;8.73;;
61389;SDS011;47260;48.274;19.814;2023-05-21T04:01:28;12.40;;;9.95;;
61389;SDS011;47260;48.274;19.814;2023-05-21T04:03:02;9.85;;;8.73;;
61389;SDS011;47260;48.274;19.814;2023-05-21T04:04:33;12.73;;;9.75;;
61389;SDS011;47260;48.274;19.814;2023-05-21T04:06:04;15.88;;;8.65;;
61389;SDS011;47260;48.274;19.814;2023-05-21T04:07:39;10.30;;;8.98;;
61389;SDS011;47260;48.274;19.814;2023-05-21T04:09:11;13.60;;;8.88;;
61389;SDS011;47260;48.274;19.814;2023-05-21T04:10:42;10.20;;;8.52;;
61389;SDS011;47260;48.274;19.814;2023-05-21T04:12:14;10.55;;;9.13;;
61389;SDS011;47260;48.274;19.814;2023-05-21T04:13:47;11.23;;;8.50;;
61389;SDS011;47260;48.274;19.814;2023-05-21T04:15:20;11.40;;;8.70;;
61389;SDS011;47260;48.274;19.814;2023-05-21T04:16:54;10.88;;;9.20;;
61389;SDS011;47260;48.274;19.814;2023-05-21T04:18:26;12.00;;;8.60;;
61389;SDS011;47260;48.274;19.814;2023-05-21T04:19:58;10.20;;;8.07;;
61389;SDS011;47260;48.274;19.814;2023-05-21T04:21:30;11.85;;;8.50;;
61389;SDS011;47260;48.274;19.814;2023-05-21T04:23:02;11.68;;;8.40;;
61389;SDS011;47260;48.274;19.814;2023-05-21T04:24:34;9.27;;;7.75;;
61389;SDS011;47260;48.274;19.814;2023-05-21T04:26:20;12.27;;;7.70;;
61389;SDS011;47260;48.274;19.814;2023-05-21T04:27:52;10.45;;;8.15;;
61389;SDS011;47260;48.274;19.814;2023-05-21T04:29:24;11.68;;;8.10;;
61389;SDS011;47260;48.274;19.814;2023-05-21T04:30:57;8.63;;;7.72;;
61389;SDS011;47260;48.274;19.814;2023-05-21T04:32:29;8.98;;;8.07;;
61389;SDS011;47260;48.274;19.814;2023-05-21T04:34:03;8.40;;;7.60;;
61389;SDS011;47260;48.274;19.814;2023-05-21T04:35:35;8.07;;;7.32;;
61389;SDS011;47260;48.274;19.814;2023-05-21T04:37:13;8.43;;;7.38;;
61389;SDS011;47260;48.274;19.814;2023-05-21T04:38:46;11.20;;;8.20;;
61389;SDS011;47260;48.274;19.814;2023-05-21T04:40:18;8.93;;;7.90;;
61389;SDS011;47260;48.274;19.814;2023-05-21T04:41:53;9.48;;;7.93;;
61389;SDS011;47260;48.274;19.814;2023-05-21T04:43:26;14.27;;;9.65;;
61389;SDS011;47260;48.274;19.814;2023-05-21T04:45:00;13.60;;;10.65;;
61389;SDS011;47260;48.274;19.814;2023-05-21T04:46:35;12.95;;;9.90;;
61389;SDS011;47260;48.274;19.814;2023-05-21T04:48:08;14.88;;;10.38;;
61389;SDS011;47260;48.274;19.814;2023-05-21T04:49:39;11.10;;;9.52;;
61389;SDS011;47260;48.274;19.814;2023-05-21T04:51:11;12.77;;;9.65;;
61389;SDS011;47260;48.274;19.814;2023-05-21T04:52:42;13.73;;;9.77;;
61389;SDS011;47260;48.274;19.814;2023-05-21T04:54:15;12.10;;;9.38;;
61389;SDS011;47260;48.274;19.814;2023-05-21T04:55:46;10.52;;;9.05;;
61389;SDS011;47260;48.274;19.814;2023-05-21T04:57:17;10.75;;;8.73;;
61389;SDS011;47260;48.274;19.814;2023-05-21T04:58:49;10.90;;;9.10;;
61389;SDS011;47260;48.274;19.814;2023-05-21T05:00:21;13.85;;;8.98;;
61389;SDS011;47260;48.274;19.814;2023-05-21T05:01:56;11.48;;;8.80;;
61389;SDS011;47260;48.274;19.814;2023-05-21T05:03:28;10.88;;;8.77;;
61389;SDS011;47260;48.274;19.814;2023-05-21T05:05:00;10.68;;;8.77;;
61389;SDS011;47260;48.274;19.814;2023-05-21T05:06:32;9.82;;;8.70;;
61389;SDS011;47260;48.274;19.814;2023-05-21T05:08:04;9.30;;;8.40;;
61389;SDS011;47260;48.274;19.814;2023-05-21T05:09:35;10.40;;;9.07;;
61389;SDS011;47260;48.274;19.814;2023-05-21T05:11:07;9.73;;;7.38;;
61389;SDS011;47260;48.274;19.814;2023-05-21T05:12:39;9.07;;;8.15;;
61389;SDS011;47260;48.274;19.814;2023-05-21T05:14:11;8.77;;;7.93;;
61389;SDS011;47260;48.274;19.814;2023-05-21T05:15:43;8.93;;;7.35;;
61389;SDS011;47260;48.274;19.814;2023-05-21T05:17:16;9.13;;;7.50;;
61389;SDS011;47260;48.274;19.814;2023-05-21T05:18:48;7.80;;;7.05;;
61389;SDS011;47260;48.274;19.814;2023-05-21T05:20:20;8.68;;;7.20;;
61389;SDS011;47260;48.274;19.814;2023-05-21T05:21:53;9.18;;;7.07;;
61389;SDS011;47260;48.274;19.814;2023-05-21T05:23:25;9.93;;;7.35;;
61389;SDS011;47260;48.274;19.814;2023-05-21T05:24:57;7.82;;;7.03;;
61389;SDS011;47260;48.274;19.814;2023-05-21T05:26:29;9.73;;;6.88;;
61389;SDS011;47260;48.274;19.814;2023-05-21T05:28:00;9.23;;;6.53;;
61389;SDS011;47260;48.274;19.814;2023-05-21T05:29:32;7.68;;;6.88;;
61389;SDS011;47260;48.274;19.814;2023-05-21T05:31:04;8.38;;;6.43;;
61389;SDS011;47260;48.274;19.814;2023-05-21T05:32:37;10.02;;;6.47;;
61389;SDS011;47260;48.274;19.814;2023-05-21T05:34:09;7.75;;;7.05;;
61389;SDS011;47260;48.274;19.814;2023-05-21T05:35:41;11.05;;;8.15;;
61389;SDS011;47260;48.274;19.814;2023-05-21T05:37:12;7.47;;;6.75;;
61389;SDS011;47260;48.274;19.814;2023-05-21T05:38:44;8.32;;;6.88;;
61389;SDS011;47260;48.274;19.814;2023-05-21T05:40:16;9.25;;;6.68;;
61389;SDS011;47260;48.274;19.814;2023-05-21T05:41:48;7.93;;;7.13;;
61389;SDS011;47260;48.274;19.814;2023-05-21T05:43:20;9.35;;;6.63;;
61389;SDS011;47260;48.274;19.814;2023-05-21T05:44:52;7.85;;;7.00;;
61389;SDS011;47260;48.274;19.814;2023-05-21T05:46:24;10.63;;;6.90;;
61389;SDS011;47260;48.274;19.814;2023-05-21T05:47:57;8.65;;;6.78;;
61389;SDS011;47260;48.274;19.814;2023-05-21T05:49:29;9.10;;;6.68;;
61389;SDS011;47260;48.274;19.814;2023-05-21T05:51:01;8.43;;;6.78;;
61389;SDS011;47260;48.274;19.814;2023-05-21T05:52:34;7.30;;;6.70;;
61389;SDS011;47260;48.274;19.814;2023-05-21T05:54:06;9.20;;;7.03;;
61389;SDS011;47260;48.274;19.814;2023-05-21T05:55:39;10.70;;;7.43;;
61389;SDS011;47260;48.274;19.814;2023-05-21T05:57:11;8.23;;;6.72;;
61389;SDS011;47260;48.274;19.814;2023-05-21T05:58:42;11.25;;;7.00;;
61389;SDS011;47260;48.274;19.814;2023-05-21T06:00:16;7.35;;;6.43;;
61389;SDS011;47260;48.274;19.814;2023-05-21T06:01:51;7.50;;;6.80;;
61389;SDS011;47260;48.274;19.814;2023-05-21T06:03:26;9.38;;;7.10;;
61389;SDS011;47260;48.274;19.814;2023-05-21T06:04:58;8.85;;;6.68;;
61389;SDS011;47260;48.274;19.814;2023-05-21T06:06:30;7.88;;;6.80;;
61389;SDS011;47260;48.274;19.814;2023-05-21T06:08:04;7.63;;;6.38;;
61389;SDS011;47260;48.274;19.814;2023-05-21T06:09:36;7.90;;;7.10;;
61389;SDS011;47260;48.274;19.814;2023-05-21T06:11:08;7.22;;;6.20;;
61389;SDS011;47260;48.274;19.814;2023-05-21T06:12:40;8.40;;;7.03;;
61389;SDS011;47260;48.274;19.814;2023-05-21T06:14:12;7.72;;;6.88;;
61389;SDS011;47260;48.274;19.814;2023-05-21T06:15:43;6.43;;;5.90;;
61389;SDS011;47260;48.274;19.814;2023-05-21T06:17:15;7.25;;;6.55;;
61389;SDS011;47260;48.274;19.814;2023-05-21T06:18:49;9.27;;;7.00;;
61389;SDS011;47260;48.274;19.814;2023-05-21T06:20:19;7.95;;;6.53;;
61389;SDS011;47260;48.274;19.814;2023-05-21T06:21:51;7.22;;;6.53;;
61389;SDS011;47260;48.274;19.814;2023-05-21T06:23:23;6.95;;;5.57;;
61389;SDS011;47260;48.274;19.814;2023-05-21T06:24:56;9.95;;;6.82;;
61389;SDS011;47260;48.274;19.814;2023-05-21T06:26:28;9.05;;;6.63;;
61389;SDS011;47260;48.274;19.814;2023-05-21T06:28:00;7.93;;;6.30;;
61389;SDS011;47260;48.274;19.814;2023-05-21T06:29:33;7.93;;;6.88;;
61389;SDS011;47260;48.274;19.814;2023-05-21T06:31:05;8.80;;;5.90;;
61389;SDS011;47260;48.274;19.814;2023-05-21T06:32:39;7.80;;;6.45;;
61389;SDS011;47260;48.274;19.814;2023-05-21T06:34:12;8.18;;;6.40;;
61389;SDS011;47260;48.274;19.814;2023-05-21T06:35:44;6.97;;;6.28;;
61389;SDS011;47260;48.274;19.814;2023-05-21T06:37:17;7.25;;;6.25;;
61389;SDS011;47260;48.274;19.814;2023-05-21T06:38:50;9.00;;;6.75;;
61389;SDS011;47260;48.274;19.814;2023-05-21T06:40:21;9.32;;;7.43;;
61389;SDS011;47260;48.274;19.814;2023-05-21T06:41:55;7.95;;;6.15;;
61389;SDS011;47260;48.274;19.814;2023-05-21T06:43:43;8.40;;;6.10;;
61389;SDS011;47260;48.274;19.814;2023-05-21T06:45:38;8.20;;;6.22;;
61389;SDS011;47260;48.274;19.814;2023-05-21T06:47:30;8.40;;;7.00;;
61389;SDS011;47260;48.274;19.814;2023-05-21T06:49:02;13.55;;;12.10;;
61389;SDS011;47260;48.274;19.814;2023-05-21T06:50:37;7.20;;;6.53;;
61389;SDS011;47260;48.274;19.814;2023-05-21T06:52:10;7.47;;;6.28;;
61389;SDS011;47260;48.274;19.814;2023-05-21T06:53:42;7.03;;;5.72;;
61389;SDS011;47260;48.274;19.814;2023-05-21T06:55:14;7.10;;;6.38;;
61389;SDS011;47260;48.274;19.814;2023-05-21T06:57:05;7.65;;;6.57;;
61389;SDS011;47260;48.274;19.814;2023-05-21T06:58:36;7.75;;;6.15;;
61389;SDS011;47260;48.274;19.814;2023-05-21T07:00:09;6.40;;;5.80;;
61389;SDS011;47260;48.274;19.814;2023-05-21T07:01:42;6.80;;;6.18;;
61389;SDS011;47260;48.274;19.814;2023-05-21T07:03:14;7.53;;;6.13;;
61389;SDS011;47260;48.274;19.814;2023-05-21T07:04:46;7.47;;;6.25;;
61389;SDS011;47260;48.274;19.814;2023-05-21T07:06:19;7.88;;;7.10;;
61389;SDS011;47260;48.274;19.814;2023-05-21T07:07:51;8.05;;;6.45;;
61389;SDS011;47260;48.274;19.814;2023-05-21T07:09:23;6.75;;;6.00;;
61389;SDS011;47260;48.274;19.814;2023-05-21T07:10:55;7.53;;;6.00;;
61389;SDS011;47260;48.274;19.814;2023-05-21T07:12:28;6.50;;;5.90;;
61389;SDS011;47260;48.274;19.814;2023-05-21T07:14:00;8.80;;;6.78;;
61389;SDS011;47260;48.274;19.814;2023-05-21T07:15:35;10.07;;;5.82;;
61389;SDS011;47260;48.274;19.814;2023-05-21T07:17:07;7.55;;;6.05;;
61389;SDS011;47260;48.274;19.814;2023-05-21T07:18:39;7.18;;;6.47;;
61389;SDS011;47260;48.274;19.814;2023-05-21T07:20:10;7.72;;;6.25;;
61389;SDS011;47260;48.274;19.814;2023-05-21T07:21:47;8.20;;;6.15;;
61389;SDS011;47260;48.274;19.814;2023-05-21T07:23:20;10.98;;;6.10;;
61389;SDS011;47260;48.274;19.814;2023-05-21T07:24:51;8.60;;;6.00;;
61389;SDS011;47260;48.274;19.814;2023-05-21T07:26:23;9.32;;;8.43;;
61389;SDS011;47260;48.274;19.814;2023-05-21T07:27:56;7.35;;;6.15;;
61389;SDS011;47260;48.274;19.814;2023-05-21T07:29:28;8.95;;;5.82;;
61389;SDS011;47260;48.274;19.814;2023-05-21T07:30:59;6.25;;;5.65;;
61389;SDS011;47260;48.274;19.814;2023-05-21T07:32:37;8.27;;;6.55;;
61389;SDS011;47260;48.274;19.814;2023-05-21T07:34:09;7.22;;;6.43;;
61389;SDS011;47260;48.274;19.814;2023-05-21T07:35:43;8.02;;;6.45;;
61389;SDS011;47260;48.274;19.814;2023-05-21T07:37:16;8.25;;;6.63;;
61389;SDS011;47260;48.274;19.814;2023-05-21T07:38:48;7.13;;;5.18;;
61389;SDS011;47260;48.274;19.814;2023-05-21T07:40:20;6.88;;;6.13;;
61389;SDS011;47260;48.274;19.814;2023-05-21T07:41:52;6.20;;;5.60;;
61389;SDS011;47260;48.274;19.814;2023-05-21T07:43:24;8.10;;;5.85;;
61389;SDS011;47260;48.274;19.814;2023-05-21T07:44:55;7.65;;;5.50;;
61389;SDS011;47260;48.274;19.814;2023-05-21T07:46:29;6.18;;;5.40;;
61389;SDS011;47260;48.274;19.814;2023-05-21T07:48:01;6.78;;;6.07;;
61389;SDS011;47260;48.274;19.814;2023-05-21T07:49:35;7.10;;;6.35;;
61389;SDS011;47260;48.274;19.814;2023-05-21T07:51:07;8.43;;;5.72;;
61389;SDS011;47260;48.274;19.814;2023-05-21T07:52:40;7.80;;;5.95;;
61389;SDS011;47260;48.274;19.814;2023-05-21T07:54:11;5.95;;;5.25;;
61389;SDS011;47260;48.274;19.814;2023-05-21T07:55:44;7.28;;;5.72;;
61389;SDS011;47260;48.274;19.814;2023-05-21T07:57:19;7.97;;;6.05;;
61389;SDS011;47260;48.274;19.814;2023-05-21T07:59:02;7.32;;;5.65;;
61389;SDS011;47260;48.274;19.814;2023-05-21T08:00:40;6.10;;;5.00;;
61389;SDS011;47260;48.274;19.814;2023-05-21T08:02:14;7.72;;;5.88;;
61389;SDS011;47260;48.274;19.814;2023-05-21T08:03:46;9.65;;;5.65;;
61389;SDS011;47260;48.274;19.814;2023-05-21T08:05:18;5.72;;;5.05;;
61389;SDS011;47260;48.274;19.814;2023-05-21T08:06:50;7.50;;;5.13;;
61389;SDS011;47260;48.274;19.814;2023-05-21T08:08:24;5.95;;;5.30;;
61389;SDS011;47260;48.274;19.814;2023-05-21T08:09:57;5.90;;;5.32;;
61389;SDS011;47260;48.274;19.814;2023-05-21T08:11:29;7.70;;;5.53;;
61389;SDS011;47260;48.274;19.814;2023-05-21T08:13:01;9.07;;;5.45;;
61389;SDS011;47260;48.274;19.814;2023-05-21T08:14:33;8.32;;;5.20;;
61389;SDS011;47260;48.274;19.814;2023-05-21T08:16:05;6.97;;;5.30;;
61389;SDS011;47260;48.274;19.814;2023-05-21T08:17:37;6.45;;;5.18;;
61389;SDS011;47260;48.274;19.814;2023-05-21T08:19:10;5.68;;;4.82;;
61389;SDS011;47260;48.274;19.814;2023-05-21T08:20:42;9.82;;;5.28;;
61389;SDS011;47260;48.274;19.814;2023-05-21T08:22:14;8.30;;;5.68;;
61389;SDS011;47260;48.274;19.814;2023-05-21T08:23:52;12.63;;;9.38;;
61389;SDS011;47260;48.274;19.814;2023-05-21T08:25:24;9.82;;;8.85;;
61389;SDS011;47260;48.274;19.814;2023-05-21T08:26:57;7.95;;;6.78;;
61389;SDS011;47260;48.274;19.814;2023-05-21T08:28:29;7.75;;;6.05;;
61389;SDS011;47260;48.274;19.814;2023-05-21T08:30:00;7.63;;;4.90;;
61389;SDS011;47260;48.274;19.814;2023-05-21T08:31:32;6.80;;;5.53;;
61389;SDS011;47260;48.274;19.814;2023-05-21T08:33:04;6.05;;;5.35;;
61389;SDS011;47260;48.274;19.814;2023-05-21T08:34:37;9.75;;;8.80;;
61389;SDS011;47260;48.274;19.814;2023-05-21T08:36:25;9.15;;;5.65;;
61389;SDS011;47260;48.274;19.814;2023-05-21T08:38:02;7.05;;;5.80;;
61389;SDS011;47260;48.274;19.814;2023-05-21T08:39:45;6.95;;;5.57;;
61389;SDS011;47260;48.274;19.814;2023-05-21T08:41:17;8.68;;;5.63;;
61389;SDS011;47260;48.274;19.814;2023-05-21T08:42:52;5.97;;;4.65;;
61389;SDS011;47260;48.274;19.814;2023-05-21T08:44:36;8.20;;;5.65;;
61389;SDS011;47260;48.274;19.814;2023-05-21T08:46:13;7.85;;;5.07;;
61389;SDS011;47260;48.274;19.814;2023-05-21T08:47:51;6.57;;;5.68;;
61389;SDS011;47260;48.274;19.814;2023-05-21T08:49:25;6.97;;;5.72;;
61389;SDS011;47260;48.274;19.814;2023-05-21T08:51:00;6.70;;;5.50;;
61389;SDS011;47260;48.274;19.814;2023-05-21T08:52:39;8.20;;;5.43;;
61389;SDS011;47260;48.274;19.814;2023-05-21T08:54:11;5.68;;;4.68;;
61389;SDS011;47260;48.274;19.814;2023-05-21T08:55:45;6.00;;;4.63;;
61389;SDS011;47260;48.274;19.814;2023-05-21T08:57:17;6.50;;;5.00;;
61389;SDS011;47260;48.274;19.814;2023-05-21T08:58:50;7.25;;;5.53;;
61389;SDS011;47260;48.274;19.814;2023-05-21T09:00:25;7.13;;;5.45;;
61389;SDS011;47260;48.274;19.814;2023-05-21T09:01:57;5.68;;;5.15;;
61389;SDS011;47260;48.274;19.814;2023-05-21T09:03:36;6.57;;;4.78;;
61389;SDS011;47260;48.274;19.814;2023-05-21T09:05:11;8.35;;;7.00;;